Time;durP1;ratioP1;P1;durP2;ratioP2;P2;SDS_P1;SDS_P2;PMS_P1;PMS_P2;Temp;Humidity;BMP_temperature;BMP_pressure;BME280_temperature;BME280_humidity;BME280_pressure;Samples;Min_cycle;Max_cycle;Signal;HPM_P1;HPM_P2
2021/08/09 00:00:13;;;;;;;1.23;0.75;;;;;20.60;101131.00;;;;5050658;28;20207;-75
2021/08/09 00:02:42;;;;;;;3.35;1.20;;;;;20.60;101128.00;;;;5051194;28;20208;-75
2021/08/09 00:05:10;;;;;;;2.20;1.20;;;;;20.60;101129.00;;;;5049663;28;20203;-74
2021/08/09 00:07:38;;;;;;;2.83;1.35;;;;;20.60;101121.00;;;;5050222;28;20196;-75
2021/08/09 00:10:06;;;;;;;3.28;1.13;;;;;20.60;101124.00;;;;5049754;28;20207;-75
2021/08/09 00:12:33;;;;;;;3.22;1.40;;;;;20.60;101128.00;;;;5050227;28;20203;-74
2021/08/09 00:15:00;;;;;;;4.93;1.45;;;;;20.60;101139.00;;;;5049547;28;20220;-75
2021/08/09 00:17:27;;;;;;;4.38;1.00;;;;;20.60;101136.00;;;;5029475;28;20670;-75
2021/08/09 00:19:56;;;;;;;2.05;1.02;;;;;20.50;101137.00;;;;5029882;28;20196;-75
2021/08/09 00:22:23;;;;;;;2.80;1.10;;;;;20.50;101139.00;;;;5030314;28;20196;-75
2021/08/09 00:24:50;;;;;;;2.88;1.30;;;;;20.50;101137.00;;;;5029896;28;20188;-75
2021/08/09 00:27:18;;;;;;;2.35;1.35;;;;;20.50;101137.00;;;;5029302;28;20196;-75
2021/08/09 00:29:45;;;;;;;1.77;1.10;;;;;20.50;101149.00;;;;5029288;28;20579;-75
2021/08/09 00:32:12;;;;;;;3.33;0.93;;;;;20.50;101149.00;;;;5039288;28;20220;-75
2021/08/09 00:34:39;;;;;;;2.22;1.02;;;;;20.50;101147.00;;;;5049175;28;20231;-75
2021/08/09 00:37:08;;;;;;;3.55;1.48;;;;;20.50;101152.00;;;;5048834;28;20226;-75
2021/08/09 00:39:35;;;;;;;2.40;0.98;;;;;20.50;101151.00;;;;5050086;28;20199;-75
2021/08/09 00:42:03;;;;;;;5.15;1.48;;;;;20.50;101152.00;;;;5049553;28;20203;-75
2021/08/09 00:44:30;;;;;;;3.92;1.30;;;;;20.50;101159.00;;;;5049462;28;20257;-75
2021/08/09 00:46:57;;;;;;;2.03;0.82;;;;;20.50;101157.00;;;;5049093;28;20207;-75
2021/08/09 00:49:24;;;;;;;4.95;1.25;;;;;20.50;101159.00;;;;5049071;28;20207;-75
2021/08/09 00:51:52;;;;;;;2.15;1.02;;;;;20.40;101164.00;;;;5048983;28;20222;-75
2021/08/09 00:54:21;;;;;;;3.15;1.60;;;;;20.40;101167.00;;;;5049384;28;20762;-75
2021/08/09 00:56:48;;;;;;;4.60;1.67;;;;;20.50;101164.00;;;;5049073;28;20203;-75
2021/08/09 00:59:16;;;;;;;4.93;1.27;;;;;20.50;101165.00;;;;5049464;28;20207;-75
2021/08/09 01:01:43;;;;;;;5.13;1.48;;;;;20.50;101166.00;;;;5048841;28;20204;-75
2021/08/09 01:04:10;;;;;;;3.28;1.10;;;;;20.50;101162.00;;;;5049259;28;20207;-75
2021/08/09 01:06:38;;;;;;;2.72;0.90;;;;;20.40;101163.00;;;;5048869;28;20596;-75
2021/08/09 01:09:16;;;;;;;4.97;1.35;;;;;20.40;101167.00;;;;5048216;28;20625;-75
2021/08/09 01:11:48;;;;;;;5.20;2.03;;;;;20.40;101164.00;;;;5044433;28;20215;-75
2021/08/09 01:14:28;;;;;;;4.10;1.30;;;;;20.40;101160.00;;;;5049078;28;20231;-75
2021/08/09 01:16:56;;;;;;;2.45;1.33;;;;;20.40;101168.00;;;;5048850;28;20234;-75
2021/08/09 01:19:37;;;;;;;2.42;1.25;;;;;20.30;101164.00;;;;5049057;28;20210;-75
2021/08/09 01:22:10;;;;;;;3.08;1.10;;;;;20.30;101166.00;;;;5048518;28;20206;-75
2021/08/09 01:24:47;;;;;;;2.80;1.00;;;;;20.30;101167.00;;;;5029226;28;20665;-75
2021/08/09 01:27:27;;;;;;;2.83;1.20;;;;;20.20;101167.00;;;;5028624;28;20203;-75
2021/08/09 01:29:59;;;;;;;3.67;1.35;;;;;20.30;101169.00;;;;5028941;28;20254;-75
2021/08/09 01:32:27;;;;;;;3.55;1.25;;;;;20.30;101170.00;;;;5028800;28;20242;-75
2021/08/09 01:34:57;;;;;;;4.50;1.40;;;;;20.30;101164.00;;;;5028171;28;20239;-75
2021/08/09 01:37:26;;;;;;;2.08;1.10;;;;;20.30;101167.00;;;;5028563;28;20208;-75
2021/08/09 01:39:53;;;;;;;5.57;1.77;;;;;20.30;101163.00;;;;5035283;28;20203;-75
2021/08/09 01:42:21;;;;;;;2.47;1.33;;;;;20.30;101164.00;;;;5051721;28;20200;-75
2021/08/09 01:44:50;;;;;;;5.13;1.67;;;;;20.30;101158.00;;;;5052742;28;20203;-75
2021/08/09 01:47:18;;;;;;;2.30;1.25;;;;;20.30;101165.00;;;;5052385;28;20203;-75
2021/08/09 01:49:46;;;;;;;7.65;1.35;;;;;20.30;101164.00;;;;5052681;28;20204;-75
2021/08/09 01:52:15;;;;;;;1.85;1.08;;;;;20.20;101156.00;;;;5052614;28;20226;-75
2021/08/09 01:54:42;;;;;;;2.05;1.30;;;;;20.20;101163.00;;;;5052820;28;20227;-75
2021/08/09 01:57:09;;;;;;;2.90;1.42;;;;;20.20;101164.00;;;;5052179;28;20207;-75
2021/08/09 01:59:37;;;;;;;4.32;1.23;;;;;20.20;101161.00;;;;5052344;28;20657;-75
2021/08/09 02:02:05;;;;;;;3.00;1.30;;;;;20.20;101160.00;;;;5052331;28;20211;-75
2021/08/09 02:04:33;;;;;;;3.10;1.10;;;;;20.20;101166.00;;;;5052223;28;20200;-75
2021/08/09 02:07:00;;;;;;;4.55;1.17;;;;;20.20;101162.00;;;;5052337;28;20254;-75
2021/08/09 02:09:27;;;;;;;3.72;1.15;;;;;20.20;101165.00;;;;5052059;28;20195;-75
2021/08/09 02:12:02;;;;;;;2.78;1.13;;;;;20.20;101168.00;;;;5052465;28;20200;-75
2021/08/09 02:14:33;;;;;;;5.88;1.67;;;;;20.20;101168.00;;;;5051546;28;20700;-75
2021/08/09 02:17:07;;;;;;;2.55;1.25;;;;;20.20;101170.00;;;;5051710;28;20248;-75
2021/08/09 02:19:39;;;;;;;2.67;1.02;;;;;20.20;101172.00;;;;5052363;28;20209;-75
2021/08/09 02:22:10;;;;;;;3.22;1.30;;;;;20.20;101176.00;;;;5051934;28;20208;-74
2021/08/09 02:24:45;;;;;;;2.83;1.27;;;;;20.10;101179.00;;;;5052440;28;20227;-75
2021/08/09 02:27:19;;;;;;;3.20;1.20;;;;;20.10;101180.00;;;;5051052;28;20230;-74
2021/08/09 02:29:50;;;;;;;8.30;1.35;;;;;20.10;101173.00;;;;5051083;28;20203;-75
2021/08/09 02:32:21;;;;;;;3.28;1.50;;;;;20.10;101167.00;;;;5051507;28;20238;-74
2021/08/09 02:34:51;;;;;;;5.10;1.88;;;;;20.10;101170.00;;;;5045170;28;20239;-75
2021/08/09 02:37:19;;;;;;;3.92;1.55;;;;;20.10;101174.00;;;;5029589;28;20207;-75
2021/08/09 02:39:47;;;;;;;3.92;1.33;;;;;20.10;101179.00;;;;5030496;28;20228;-75
2021/08/09 02:42:15;;;;;;;4.20;1.23;;;;;20.10;101177.00;;;;5030239;28;20219;-75
2021/08/09 02:44:43;;;;;;;3.83;1.42;;;;;20.10;101178.00;;;;5030844;28;20564;-75
2021/08/09 02:47:13;;;;;;;3.80;1.52;;;;;20.10;101187.00;;;;5031361;28;20215;-75
2021/08/09 02:49:47;;;;;;;2.35;1.05;;;;;20.10;101188.00;;;;5050681;28;20208;-75
2021/08/09 02:52:16;;;;;;;4.97;1.60;;;;;20.10;101182.00;;;;5049365;28;20204;-75
2021/08/09 02:54:46;;;;;;;3.80;1.50;;;;;20.10;101178.00;;;;5050504;28;20723;-75
2021/08/09 02:57:14;;;;;;;2.20;1.10;;;;;20.10;101178.00;;;;5050089;28;20199;-75
2021/08/09 02:59:42;;;;;;;3.78;1.40;;;;;20.10;101185.00;;;;5050752;28;20210;-76
2021/08/09 03:02:11;;;;;;;5.43;1.55;;;;;20.10;101178.00;;;;5049570;28;20215;-75
2021/08/09 03:04:38;;;;;;;1.92;0.95;;;;;20.10;101183.00;;;;5049723;28;20736;-77
2021/08/09 03:07:08;;;;;;;4.38;1.25;;;;;20.10;101177.00;;;;5049711;28;20213;-74
2021/08/09 03:09:35;;;;;;;2.75;1.25;;;;;20.10;101180.00;;;;5050209;28;20212;-74
2021/08/09 03:12:04;;;;;;;4.70;1.42;;;;;20.20;101171.00;;;;5049594;28;20211;-74
2021/08/09 03:14:31;;;;;;;6.53;1.50;;;;;20.10;101169.00;;;;5049988;28;20229;-74
2021/08/09 03:17:00;;;;;;;7.70;1.52;;;;;20.10;101179.00;;;;5049352;28;20250;-74
2021/08/09 03:19:27;;;;;;;8.27;1.70;;;;;20.20;101178.00;;;;5049788;28;20210;-74
2021/08/09 03:21:56;;;;;;;5.32;1.27;;;;;20.10;101177.00;;;;5049237;28;20211;-74
2021/08/09 03:24:28;;;;;;;4.93;1.10;;;;;20.10;101174.00;;;;5050247;28;20642;-74
2021/08/09 03:26:55;;;;;;;2.00;1.00;;;;;20.20;101180.00;;;;5049058;28;20208;-74
2021/08/09 03:29:22;;;;;;;4.05;1.25;;;;;20.20;101174.00;;;;5050243;28;20195;-74
2021/08/09 03:31:51;;;;;;;4.05;1.20;;;;;20.20;101175.00;;;;5049207;28;20574;-74
2021/08/09 03:36:28;;;;;;;3.28;1.30;;;;;20.20;101178.00;;;;5086566;28;20600;-75
2021/08/09 03:38:55;;;;;;;6.72;1.30;;;;;20.20;101176.00;;;;5078437;28;20207;-75
2021/08/09 03:41:22;;;;;;;2.95;1.15;;;;;20.20;101171.00;;;;5066548;28;20203;-75
2021/08/09 03:43:49;;;;;;;2.42;1.33;;;;;20.20;101173.00;;;;5065865;28;20711;-74
2021/08/09 03:46:17;;;;;;;3.40;1.50;;;;;20.20;101178.00;;;;5065128;28;20203;-74
2021/08/09 03:48:44;;;;;;;2.08;1.00;;;;;20.20;101180.00;;;;5066190;28;20576;-75
2021/08/09 03:51:11;;;;;;;3.17;1.25;;;;;20.20;101185.00;;;;5065911;28;20206;-74
2021/08/09 03:53:40;;;;;;;4.95;1.23;;;;;20.10;101189.00;;;;5065841;28;20206;-74
2021/08/09 03:56:07;;;;;;;8.35;2.40;;;;;20.10;101179.00;;;;5065818;28;20237;-75
2021/08/09 03:58:34;;;;;;;2.47;1.35;;;;;20.10;101191.00;;;;5066316;28;20218;-75
2021/08/09 04:01:03;;;;;;;2.05;1.08;;;;;20.20;101190.00;;;;5065858;28;20649;-75
2021/08/09 04:03:30;;;;;;;2.53;1.10;;;;;20.20;101183.00;;;;5066054;28;20252;-75
2021/08/09 04:05:57;;;;;;;5.65;1.15;;;;;20.20;101189.00;;;;5065478;28;20199;-75
2021/08/09 04:08:24;;;;;;;3.55;1.50;;;;;20.20;101190.00;;;;5065709;28;20199;-75
2021/08/09 04:10:53;;;;;;;2.10;0.90;;;;;20.10;101192.00;;;;5065595;28;20199;-75
2021/08/09 04:13:20;;;;;;;2.97;1.40;;;;;20.20;101193.00;;;;5069090;28;20203;-75
2021/08/09 04:15:47;;;;;;;3.38;1.42;;;;;20.20;101197.00;;;;5084845;28;20707;-75
2021/08/09 04:18:15;;;;;;;7.15;1.30;;;;;20.20;101196.00;;;;5085958;28;20202;-74
2021/08/09 04:20:42;;;;;;;1.33;1.02;;;;;20.10;101188.00;;;;5085938;28;20198;-75
2021/08/09 04:23:09;;;;;;;3.65;1.40;;;;;20.10;101195.00;;;;5084955;28;20229;-75
2021/08/09 04:25:36;;;;;;;3.92;1.50;;;;;20.10;101196.00;;;;5085796;28;20194;-75
2021/08/09 04:28:05;;;;;;;5.38;1.58;;;;;20.10;101207.00;;;;5085549;28;20195;-75
2021/08/09 04:30:33;;;;;;;6.22;1.45;;;;;20.10;101202.00;;;;5073031;28;20203;-75
2021/08/09 04:33:03;;;;;;;3.85;0.82;;;;;20.10;101206.00;;;;5064807;28;20246;-75
2021/08/09 04:35:31;;;;;;;4.43;1.42;;;;;20.20;101201.00;;;;5064847;28;20281;-75
2021/08/09 04:37:58;;;;;;;4.10;1.70;;;;;20.20;101205.00;;;;5064313;28;20195;-75
2021/08/09 04:40:25;;;;;;;4.07;1.02;;;;;20.20;101204.00;;;;5064978;28;20672;-75
2021/08/09 04:42:52;;;;;;;4.60;1.23;;;;;20.20;101209.00;;;;5064467;28;20203;-75
2021/08/09 04:45:21;;;;;;;7.20;2.10;;;;;20.20;101209.00;;;;5064631;28;20199;-74
2021/08/09 04:47:48;;;;;;;2.63;1.33;;;;;20.20;101208.00;;;;5051984;28;20692;-75
2021/08/09 04:50:15;;;;;;;2.30;1.00;;;;;20.20;101207.00;;;;5051383;28;20207;-75
2021/08/09 04:52:43;;;;;;;2.15;1.15;;;;;20.20;101206.00;;;;5052010;28;20196;-73
2021/08/09 04:55:13;;;;;;;2.35;1.30;;;;;20.20;101210.00;;;;5050917;28;20644;-74
2021/08/09 04:57:40;;;;;;;2.83;1.30;;;;;20.20;101216.00;;;;5051249;28;20196;-74
2021/08/09 05:00:08;;;;;;;4.90;1.15;;;;;20.20;101222.00;;;;5051230;28;20203;-74
2021/08/09 05:02:38;;;;;;;4.47;1.17;;;;;20.30;101219.00;;;;5051815;28;20210;-74
2021/08/09 05:05:06;;;;;;;3.25;1.17;;;;;20.30;101220.00;;;;5051889;28;20204;-74
2021/08/09 05:07:33;;;;;;;4.70;1.15;;;;;20.30;101223.00;;;;5051253;28;20208;-74
2021/08/09 05:10:03;;;;;;;5.75;1.95;;;;;20.30;101225.00;;;;5051037;28;20249;-75
2021/08/09 05:12:30;;;;;;;2.25;1.15;;;;;20.40;101228.00;;;;5051595;28;20204;-74
2021/08/09 05:14:57;;;;;;;5.53;1.77;;;;;20.40;101228.00;;;;5050842;28;20227;-75
2021/08/09 05:17:25;;;;;;;2.53;0.95;;;;;20.40;101221.00;;;;5050918;28;20222;-74
2021/08/09 05:19:53;;;;;;;4.68;1.40;;;;;20.40;101227.00;;;;5051213;28;20192;-74
2021/08/09 05:22:21;;;;;;;2.60;1.00;;;;;20.40;101234.00;;;;5069672;28;20203;-74
2021/08/09 05:24:49;;;;;;;6.88;1.50;;;;;20.40;101226.00;;;;5070969;28;20213;-74
2021/08/09 05:27:16;;;;;;;5.32;1.20;;;;;20.50;101224.00;;;;5070563;28;20230;-74
2021/08/09 05:29:43;;;;;;;3.78;1.45;;;;;20.50;101227.00;;;;5071103;28;20583;-74
2021/08/09 05:32:11;;;;;;;5.07;0.98;;;;;20.50;101232.00;;;;5071015;28;20210;-74
2021/08/09 05:34:41;;;;;;;2.88;1.42;;;;;20.50;101229.00;;;;5060625;28;20231;-74
2021/08/09 05:37:09;;;;;;;2.85;1.00;;;;;20.50;101230.00;;;;5067183;28;20210;-75
2021/08/09 05:39:36;;;;;;;4.55;1.65;;;;;20.60;101236.00;;;;5050923;28;20686;-74
2021/08/09 05:42:04;;;;;;;2.10;1.13;;;;;20.60;101226.00;;;;5050080;28;20203;-74
2021/08/09 05:44:31;;;;;;;4.65;1.40;;;;;20.60;101237.00;;;;5050874;28;20413;-75
2021/08/09 05:46:58;;;;;;;3.08;1.08;;;;;20.60;101239.00;;;;5050245;28;20196;-75
2021/08/09 05:49:25;;;;;;;2.60;1.10;;;;;20.70;101240.00;;;;5050565;28;20199;-74
2021/08/09 05:51:53;;;;;;;2.97;1.30;;;;;20.70;101239.00;;;;5049537;28;20202;-75
2021/08/09 05:54:21;;;;;;;4.95;1.23;;;;;20.70;101242.00;;;;5050023;28;20207;-74
2021/08/09 05:56:48;;;;;;;2.88;1.10;;;;;20.70;101245.00;;;;5049502;28;20227;-74
2021/08/09 05:59:15;;;;;;;2.58;1.05;;;;;20.80;101237.00;;;;5048828;28;20214;-75
2021/08/09 06:01:43;;;;;;;4.00;1.17;;;;;20.80;101241.00;;;;5049904;28;20203;-74
2021/08/09 06:04:10;;;;;;;3.53;1.60;;;;;20.80;101242.00;;;;5049813;28;20636;-74
2021/08/09 06:06:37;;;;;;;2.00;1.25;;;;;20.90;101245.00;;;;5049250;28;20219;-74
2021/08/09 06:09:04;;;;;;;3.17;1.05;;;;;20.90;101246.00;;;;5049580;28;20196;-74
2021/08/09 06:11:33;;;;;;;3.75;1.30;;;;;21.00;101251.00;;;;5049643;28;20712;-74
2021/08/09 06:14:00;;;;;;;8.25;1.33;;;;;21.00;101247.00;;;;5049087;28;20202;-74
2021/08/09 06:16:27;;;;;;;3.80;1.17;;;;;21.10;101248.00;;;;5049521;28;20242;-75
2021/08/09 06:18:55;;;;;;;3.03;1.17;;;;;21.10;101251.00;;;;5047950;28;20283;-74
2021/08/09 06:21:22;;;;;;;3.17;1.60;;;;;21.20;101252.00;;;;5048955;28;20293;-75
2021/08/09 06:23:49;;;;;;;5.75;1.25;;;;;21.20;101258.00;;;;5049222;28;20199;-74
2021/08/09 06:26:16;;;;;;;3.55;1.13;;;;;21.30;101263.00;;;;5048883;28;20207;-74
2021/08/09 06:28:45;;;;;;;7.53;1.70;;;;;21.30;101260.00;;;;5054363;28;20661;-74
2021/08/09 06:31:12;;;;;;;6.18;1.50;;;;;21.40;101263.00;;;;5068315;28;20203;-74
2021/08/09 06:33:39;;;;;;;3.28;1.17;;;;;21.40;101262.00;;;;5069147;28;20218;-74
2021/08/09 06:36:07;;;;;;;2.63;1.08;;;;;21.40;101259.00;;;;5068295;28;20234;-75
2021/08/09 06:38:34;;;;;;;5.78;1.38;;;;;21.50;101265.00;;;;5068407;28;20213;-75
2021/08/09 06:41:01;;;;;;;4.28;1.48;;;;;21.50;101261.00;;;;5068555;28;20214;-74
2021/08/09 06:43:28;;;;;;;3.67;1.33;;;;;21.60;101254.00;;;;5069360;28;20195;-75
2021/08/09 06:45:57;;;;;;;3.65;1.30;;;;;21.60;101262.00;;;;5067525;28;20233;-74
2021/08/09 06:48:26;;;;;;;3.90;1.80;;;;;21.70;101269.00;;;;5069049;28;20206;-74
2021/08/09 06:50:53;;;;;;;1.90;0.80;;;;;21.70;101272.00;;;;5067949;28;20210;-74
2021/08/09 06:53:20;;;;;;;3.70;1.27;;;;;21.80;101263.00;;;;5069264;28;20195;-74
2021/08/09 06:55:48;;;;;;;7.13;1.88;;;;;21.80;101265.00;;;;5068908;28;20223;-74
2021/08/09 06:58:15;;;;;;;7.65;1.65;;;;;21.90;101267.00;;;;5069590;28;20218;-74
2021/08/09 07:00:42;;;;;;;2.65;1.00;;;;;21.90;101267.00;;;;5069698;28;20203;-73
2021/08/09 07:03:10;;;;;;;2.28;1.08;;;;;22.00;101259.00;;;;5067965;28;20588;-74
2021/08/09 07:05:42;;;;;;;5.45;1.40;;;;;22.00;101268.00;;;;5068840;28;20207;-75
2021/08/09 07:08:10;;;;;;;2.40;1.23;;;;;22.10;101270.00;;;;5068872;28;20202;-74
2021/08/09 07:10:37;;;;;;;4.35;1.00;;;;;22.20;101261.00;;;;5069016;28;20218;-75
2021/08/09 07:13:05;;;;;;;4.15;1.20;;;;;22.20;101255.00;;;;5051205;28;20589;-75
2021/08/09 07:15:32;;;;;;;3.83;1.23;;;;;22.30;101260.00;;;;5048686;28;20227;-75
2021/08/09 07:17:59;;;;;;;4.60;1.85;;;;;22.40;101258.00;;;;5049013;28;20199;-75
2021/08/09 07:20:28;;;;;;;3.30;1.50;;;;;22.50;101256.00;;;;5049461;28;20214;-75
2021/08/09 07:22:55;;;;;;;1.83;0.95;;;;;22.60;101260.00;;;;5048341;28;20206;-75
2021/08/09 07:25:22;;;;;;;2.13;1.25;;;;;22.60;101257.00;;;;5049005;28;20199;-75
2021/08/09 07:27:50;;;;;;;5.53;1.40;;;;;22.70;101256.00;;;;5048877;28;20206;-74
2021/08/09 07:30:17;;;;;;;4.72;1.48;;;;;22.80;101254.00;;;;5048746;28;20207;-75
2021/08/09 07:32:45;;;;;;;2.65;1.00;;;;;22.80;101250.00;;;;5048923;28;20270;-75
2021/08/09 07:35:13;;;;;;;8.52;1.42;;;;;22.90;101260.00;;;;5048231;28;20233;-75
2021/08/09 07:37:41;;;;;;;5.68;1.23;;;;;23.00;101246.00;;;;5049678;28;20211;-74
2021/08/09 07:40:10;;;;;;;2.95;1.23;;;;;23.10;101251.00;;;;5048250;28;20199;-75
2021/08/09 07:42:37;;;;;;;2.58;0.95;;;;;23.20;101253.00;;;;5048672;28;20210;-75
2021/08/09 07:45:05;;;;;;;2.58;0.75;;;;;23.30;101258.00;;;;5048493;28;20687;-76
2021/08/09 07:47:33;;;;;;;5.25;1.10;;;;;23.30;101253.00;;;;5048626;28;20215;-75
2021/08/09 07:50:00;;;;;;;2.97;1.15;;;;;23.40;101257.00;;;;5048462;28;20203;-75
2021/08/09 07:52:27;;;;;;;1.95;0.77;;;;;23.50;101267.00;;;;5048335;28;20207;-75
2021/08/09 07:54:56;;;;;;;3.75;1.20;;;;;23.50;101264.00;;;;5048899;28;20208;-75
2021/08/09 07:57:23;;;;;;;2.60;0.98;;;;;23.60;101258.00;;;;5048415;28;20318;-75
2021/08/09 07:59:53;;;;;;;5.53;1.35;;;;;23.70;101259.00;;;;5048337;28;20204;-74
2021/08/09 08:02:20;;;;;;;2.72;1.02;;;;;23.80;101268.00;;;;5048758;28;20203;-75
2021/08/09 08:04:47;;;;;;;2.22;0.98;;;;;23.90;101262.00;;;;5048465;28;20204;-75
2021/08/09 08:07:15;;;;;;;3.72;1.10;;;;;24.00;101259.00;;;;5048337;28;20728;-75
2021/08/09 08:09:42;;;;;;;2.85;0.98;;;;;24.00;101262.00;;;;5049172;28;20658;-75
2021/08/09 08:12:10;;;;;;;5.03;1.02;;;;;24.10;101258.00;;;;5049065;28;20196;-75
2021/08/09 08:14:38;;;;;;;1.40;0.80;;;;;24.20;101264.00;;;;5047873;28;20203;-74
2021/08/09 08:17:05;;;;;;;2.10;0.90;;;;;24.20;101263.00;;;;5048412;28;20231;-75
2021/08/09 08:19:32;;;;;;;1.65;0.90;;;;;24.30;101269.00;;;;5048995;28;20200;-75
2021/08/09 08:22:00;;;;;;;1.48;0.70;;;;;24.50;101268.00;;;;5049701;28;20227;-74
2021/08/09 08:24:28;;;;;;;4.45;1.20;;;;;24.60;101265.00;;;;5052341;28;20211;-75
2021/08/09 08:26:56;;;;;;;1.75;0.75;;;;;24.70;101262.00;;;;5051642;28;20235;-75
2021/08/09 08:29:24;;;;;;;0.65;0.55;;;;;24.80;101274.00;;;;5071530;28;20664;-76
2021/08/09 08:31:51;;;;;;;2.00;0.85;;;;;24.80;101266.00;;;;5071809;28;20194;-76
2021/08/09 08:34:19;;;;;;;3.97;0.80;;;;;24.80;101266.00;;;;5067399;28;20198;-75
2021/08/09 08:36:46;;;;;;;1.48;0.70;;;;;24.90;101268.00;;;;5063890;28;20219;-76
2021/08/09 08:39:13;;;;;;;1.73;0.98;;;;;24.90;101269.00;;;;5072344;28;20674;-75
2021/08/09 08:41:43;;;;;;;1.48;0.90;;;;;24.90;101271.00;;;;5072037;28;20203;-75
2021/08/09 08:44:10;;;;;;;3.85;0.80;;;;;24.90;101274.00;;;;5070228;28;20214;-76
2021/08/09 08:46:42;;;;;;;3.97;0.82;;;;;24.90;101273.00;;;;5051692;28;20211;-75
2021/08/09 08:49:14;;;;;;;2.30;1.10;;;;;25.00;101277.00;;;;5051759;28;20210;-76
2021/08/09 08:51:43;;;;;;;3.05;0.93;;;;;25.00;101280.00;;;;5051696;28;20203;-76
2021/08/09 08:54:12;;;;;;;3.05;0.80;;;;;25.00;101281.00;;;;5051415;28;20200;-76
2021/08/09 08:56:39;;;;;;;2.45;0.77;;;;;25.00;101269.00;;;;5050790;28;20234;-76
2021/08/09 08:59:11;;;;;;;4.30;0.98;;;;;25.00;101261.00;;;;5051059;28;20689;-76
2021/08/09 09:01:42;;;;;;;2.28;1.10;;;;;25.00;101263.00;;;;5052381;28;20204;-76
2021/08/09 09:04:27;;;;;;;2.88;0.73;;;;;25.00;101267.00;;;;5050808;28;20200;-76
2021/08/09 09:07:02;;;;;;;3.17;0.85;;;;;25.10;101275.00;;;;5051556;28;20238;-75
2021/08/09 09:09:31;;;;;;;2.60;0.85;;;;;25.10;101277.00;;;;5051211;28;20290;-76
2021/08/09 09:12:00;;;;;;;1.50;1.02;;;;;25.10;101273.00;;;;5051353;28;20588;-76
2021/08/09 09:14:29;;;;;;;1.63;0.70;;;;;25.10;101283.00;;;;5051093;28;20207;-76
2021/08/09 09:16:59;;;;;;;3.00;0.82;;;;;25.10;101285.00;;;;5050871;28;20709;-76
2021/08/09 09:19:35;;;;;;;2.88;0.70;;;;;25.10;101283.00;;;;5062175;28;20210;-76
2021/08/09 09:22:04;;;;;;;2.58;0.90;;;;;25.10;101275.00;;;;5071018;28;20198;-77
2021/08/09 09:24:31;;;;;;;1.30;0.45;;;;;25.10;101274.00;;;;5071244;28;20206;-76
2021/08/09 09:27:02;;;;;;;4.63;0.90;;;;;25.10;101280.00;;;;5070730;28;20234;-76
2021/08/09 09:29:35;;;;;;;0.85;0.50;;;;;25.00;101271.00;;;;5070979;28;20253;-77
2021/08/09 09:32:16;;;;;;;1.95;0.95;;;;;25.00;101276.00;;;;5070450;28;20211;-76
2021/08/09 09:34:50;;;;;;;3.65;0.73;;;;;25.00;101276.00;;;;5071035;28;20257;-76
2021/08/09 09:37:26;;;;;;;1.63;0.75;;;;;25.00;101277.00;;;;5069245;28;20603;-76
2021/08/09 09:39:54;;;;;;;2.50;0.75;;;;;25.00;101277.00;;;;5070390;28;20202;-76
2021/08/09 09:42:32;;;;;;;1.33;0.70;;;;;25.00;101285.00;;;;5071000;28;20195;-75
2021/08/09 09:45:19;;;;;;;3.05;0.70;;;;;24.90;101286.00;;;;5070185;28;20563;-76
2021/08/09 09:48:02;;;;;;;1.25;0.80;;;;;24.90;101288.00;;;;5069867;28;20199;-77
2021/08/09 09:50:30;;;;;;;2.50;0.70;;;;;25.00;101285.00;;;;5070575;28;20264;-76
2021/08/09 09:52:57;;;;;;;2.30;0.82;;;;;25.00;101287.00;;;;5069033;28;20310;-76
2021/08/09 09:55:24;;;;;;;3.30;1.02;;;;;24.90;101285.00;;;;5070242;28;20582;-76
2021/08/09 09:57:51;;;;;;;1.58;0.70;;;;;24.90;101293.00;;;;5070344;28;20242;-76
2021/08/09 10:00:20;;;;;;;6.32;1.58;;;;;24.90;101276.00;;;;5069666;28;20199;-77
2021/08/09 10:02:50;;;;;;;1.48;0.73;;;;;24.90;101281.00;;;;5069670;28;20699;-76
2021/08/09 10:05:17;;;;;;;1.42;0.80;;;;;24.90;101284.00;;;;5070491;28;20214;-77
2021/08/09 10:07:48;;;;;;;2.00;0.85;;;;;24.80;101283.00;;;;5068812;28;20217;-77
2021/08/09 10:10:16;;;;;;;1.48;0.65;;;;;24.80;101280.00;;;;5059546;28;20207;-77
2021/08/09 10:12:48;;;;;;;3.00;0.95;;;;;24.80;101283.00;;;;5050596;28;20191;-76
2021/08/09 10:15:19;;;;;;;2.25;0.88;;;;;24.80;101278.00;;;;5050169;28;20207;-74
2021/08/09 10:17:50;;;;;;;3.33;1.17;;;;;24.80;101282.00;;;;5049994;28;20227;-74
2021/08/09 10:20:19;;;;;;;1.40;0.90;;;;;24.80;101287.00;;;;5049529;28;20199;-74
2021/08/09 10:22:56;;;;;;;2.42;1.00;;;;;24.70;101283.00;;;;5049421;28;20196;-74
2021/08/09 10:25:46;;;;;;;4.05;0.68;;;;;24.70;101288.00;;;;5050012;28;20231;-73
2021/08/09 10:28:13;;;;;;;3.30;0.95;;;;;24.80;101276.00;;;;5067395;28;20203;-75
2021/08/09 10:30:41;;;;;;;1.88;0.90;;;;;24.80;101285.00;;;;5069324;28;20206;-74
2021/08/09 10:33:11;;;;;;;3.80;0.90;;;;;24.80;101281.00;;;;5069416;28;20606;-75
2021/08/09 10:36:03;;;;;;;1.48;0.82;;;;;24.60;101284.00;;;;5069970;28;20308;-76
2021/08/09 10:38:37;;;;;;;3.10;0.93;;;;;24.70;101295.00;;;;5069205;28;20272;-76
2021/08/09 10:41:37;;;;;;;1.92;0.90;;;;;24.70;101291.00;;;;5069216;28;20668;-75
2021/08/09 10:44:24;;;;;;;3.00;1.10;;;;;24.60;101287.00;;;;5068122;28;20235;-75
2021/08/09 10:46:55;;;;;;;2.17;0.98;;;;;24.70;101293.00;;;;5069089;28;20210;-75
2021/08/09 10:49:52;;;;;;;2.55;0.80;;;;;24.60;101298.00;;;;5069537;28;20205;-74
2021/08/09 10:52:46;;;;;;;1.63;0.75;;;;;24.60;101296.00;;;;5069005;28;20241;-76
2021/08/09 10:55:48;;;;;;;2.85;1.00;;;;;24.50;101307.00;;;;5069050;28;20203;-75
2021/08/09 10:58:53;;;;;;;1.40;0.88;;;;;24.50;101305.00;;;;5069086;28;20230;-75
2021/08/09 11:01:23;;;;;;;4.68;1.00;;;;;24.60;101300.00;;;;5068411;28;20202;-74
2021/08/09 11:04:18;;;;;;;2.85;1.00;;;;;24.50;101303.00;;;;5069389;28;20226;-76
2021/08/09 11:06:52;;;;;;;1.25;0.88;;;;;24.60;101303.00;;;;5068955;28;20210;-75
2021/08/09 11:09:41;;;;;;;1.25;0.80;;;;;24.50;101303.00;;;;5066381;28;20238;-76
2021/08/09 11:12:13;;;;;;;4.38;1.20;;;;;24.60;101297.00;;;;5048911;28;20658;-75
2021/08/09 11:15:16;;;;;;;2.13;0.70;;;;;24.50;101306.00;;;;5048979;28;20649;-76
2021/08/09 11:17:52;;;;;;;1.30;0.90;;;;;24.50;101309.00;;;;5049728;28;20314;-75
2021/08/09 11:20:22;;;;;;;1.67;0.73;;;;;24.60;101306.00;;;;5049175;28;20199;-75
2021/08/09 11:23:02;;;;;;;1.83;0.70;;;;;24.50;101308.00;;;;5048448;28;20203;-76
2021/08/09 11:25:32;;;;;;;2.22;0.80;;;;;24.60;101310.00;;;;5048536;28;20579;-75
2021/08/09 11:28:05;;;;;;;1.08;0.73;;;;;24.60;101316.00;;;;5048653;28;20696;-75
2021/08/09 11:30:37;;;;;;;2.60;1.40;;;;;24.70;101321.00;;;;5048963;28;20553;-75
2021/08/09 11:33:05;;;;;;;1.50;0.80;;;;;24.70;101308.00;;;;5048854;28;20239;-76
2021/08/09 11:35:41;;;;;;;3.22;1.25;;;;;24.70;101308.00;;;;5062426;28;20226;-76
2021/08/09 11:38:10;;;;;;;1.60;1.13;;;;;24.70;101304.00;;;;5048107;28;20236;-76
2021/08/09 11:40:42;;;;;;;1.23;0.80;;;;;24.80;101305.00;;;;5048568;28;20202;-75
2021/08/09 11:43:11;;;;;;;1.50;0.90;;;;;24.80;101294.00;;;;5048809;28;20314;-75
2021/08/09 11:45:39;;;;;;;1.77;1.10;;;;;24.90;101307.00;;;;5048700;28;20215;-75
2021/08/09 11:48:07;;;;;;;0.90;0.80;;;;;24.90;101291.00;;;;5048406;28;20740;-75
2021/08/09 11:50:36;;;;;;;2.67;1.20;;;;;25.00;101293.00;;;;5048522;28;20234;-75
2021/08/09 11:53:04;;;;;;;2.20;0.88;;;;;25.00;101290.00;;;;5048124;28;20207;-75
2021/08/09 11:55:33;;;;;;;1.88;0.80;;;;;25.00;101305.00;;;;5048471;28;20678;-75
2021/08/09 11:58:00;;;;;;;1.50;0.73;;;;;25.10;101299.00;;;;5051515;28;20230;-76
2021/08/09 12:00:42;;;;;;;2.55;1.00;;;;;25.00;101299.00;;;;5053109;28;20199;-75
2021/08/09 12:03:11;;;;;;;1.15;0.60;;;;;25.10;101304.00;;;;5052615;28;20206;-75
2021/08/09 12:05:38;;;;;;;2.00;1.13;;;;;25.10;101299.00;;;;5052673;28;20206;-75
2021/08/09 12:08:07;;;;;;;4.20;1.27;;;;;25.10;101302.00;;;;5051974;28;20211;-75
2021/08/09 12:10:37;;;;;;;2.47;0.90;;;;;25.10;101302.00;;;;5052816;28;20238;-75
2021/08/09 12:13:20;;;;;;;1.65;1.55;;;;;25.10;101302.00;;;;5051611;28;20199;-75
2021/08/09 12:16:02;;;;;;;1.00;0.70;;;;;25.20;101306.00;;;;5052150;28;20211;-76
2021/08/09 12:18:29;;;;;;;1.10;0.80;;;;;25.30;101314.00;;;;5051857;28;20227;-76
2021/08/09 12:21:11;;;;;;;2.28;0.93;;;;;25.30;101298.00;;;;5051921;28;20208;-77
2021/08/09 12:23:52;;;;;;;3.38;0.90;;;;;25.30;101308.00;;;;5052504;28;20211;-77